Time;durP1;ratioP1;P1;durP2;ratioP2;P2;SDS_P1;SDS_P2;PMS_P1;PMS_P2;Temp;Humidity;BMP_temperature;BMP_pressure;BME280_temperature;BME280_humidity;BME280_pressure;Samples;Min_cycle;Max_cycle;Signal;HPM_P1;HPM_P2
2022/02/26 00:00:24;;;;;;;8.20;3.47;;;5.60;99.90;;;;;;5027099;28;20699;-85
2022/02/26 00:02:51;;;;;;;10.10;3.63;;;5.60;99.90;;;;;;5028083;28;20232;-85
2022/02/26 00:05:18;;;;;;;9.93;3.30;;;5.50;99.90;;;;;;5027804;28;20274;-85
2022/02/26 00:07:46;;;;;;;9.50;2.53;;;5.40;99.90;;;;;;5031026;28;20204;-85
2022/02/26 00:10:13;;;;;;;6.03;2.95;;;5.70;99.90;;;;;;5029301;28;20232;-85
2022/02/26 00:12:40;;;;;;;7.18;3.25;;;5.50;99.90;;;;;;5035129;28;20661;-85
2022/02/26 00:15:08;;;;;;;9.07;3.30;;;5.60;99.90;;;;;;5030679;28;20279;-85
2022/02/26 00:17:35;;;;;;;10.45;3.53;;;5.50;99.90;;;;;;5034855;28;20214;-85
2022/02/26 00:20:03;;;;;;;11.07;3.15;;;5.40;99.90;;;;;;5027074;28;20234;-85
2022/02/26 00:22:30;;;;;;;10.35;3.60;;;5.30;99.90;;;;;;5025973;28;20745;-85
2022/02/26 00:24:58;;;;;;;6.93;3.00;;;5.50;99.90;;;;;;5026162;28;20241;-85
2022/02/26 00:27:25;;;;;;;8.80;3.65;;;5.60;99.90;;;;;;5026565;28;20202;-85
2022/02/26 00:29:51;;;;;;;9.88;3.25;;;5.70;99.90;;;;;;5027277;28;20296;-85
2022/02/26 00:32:18;;;;;;;8.80;2.97;;;5.80;99.90;;;;;;5031130;28;20221;-84
2022/02/26 00:34:45;;;;;;;6.70;3.50;;;5.70;99.90;;;;;;5025424;28;20287;-85
2022/02/26 00:37:12;;;;;;;7.68;2.70;;;5.70;99.90;;;;;;5026633;28;20243;-84
2022/02/26 00:39:39;;;;;;;8.23;2.90;;;5.70;99.90;;;;;;5025996;28;20233;-85
2022/02/26 00:42:07;;;;;;;12.25;3.45;;;5.80;99.90;;;;;;5040744;28;20217;-85
2022/02/26 00:44:35;;;;;;;5.75;2.80;;;5.70;99.90;;;;;;5039956;28;20208;-85
2022/02/26 00:47:02;;;;;;;5.38;2.60;;;5.90;99.90;;;;;;5034718;28;20673;-84
2022/02/26 00:52:14;;;;;;;7.35;3.08;;;5.90;99.90;;;;;;5026615;28;20275;-84
2022/02/26 00:54:41;;;;;;;7.15;2.85;;;5.90;99.90;;;;;;5029891;28;20218;-84
2022/02/26 00:57:09;;;;;;;43.50;26.83;;;5.70;99.90;;;;;;5029750;28;20198;-84
2022/02/26 00:59:49;;;;;;;5.95;2.88;;;5.50;99.90;;;;;;5027381;28;20337;-84
2022/02/26 01:02:17;;;;;;;9.45;3.60;;;5.80;99.90;;;;;;5027032;28;20195;-85
2022/02/26 01:04:44;;;;;;;6.78;3.20;;;5.70;99.90;;;;;;5027068;28;20240;-83
2022/02/26 01:07:12;;;;;;;8.52;2.90;;;5.80;99.90;;;;;;5025779;28;20224;-84
2022/02/26 01:09:39;;;;;;;15.15;3.72;;;5.80;99.90;;;;;;5026809;28;20233;-84
2022/02/26 01:12:07;;;;;;;8.93;4.18;;;5.60;99.90;;;;;;5026290;28;20237;-84
2022/02/26 01:14:37;;;;;;;9.60;2.53;;;5.80;99.90;;;;;;5025108;28;20213;-84
2022/02/26 01:17:06;;;;;;;5.57;2.80;;;5.90;99.90;;;;;;5024290;28;20221;-84
2022/02/26 01:19:33;;;;;;;7.05;3.10;;;5.90;99.90;;;;;;5028518;28;20231;-84
2022/02/26 01:22:00;;;;;;;7.85;3.38;;;6.00;99.90;;;;;;5024013;28;20239;-84
2022/02/26 01:24:27;;;;;;;11.30;3.58;;;5.90;99.90;;;;;;5023234;28;20206;-84
2022/02/26 01:26:54;;;;;;;7.25;2.85;;;5.90;99.90;;;;;;5025705;28;20211;-84
2022/02/26 01:29:21;;;;;;;6.95;3.65;;;6.00;99.90;;;;;;5023488;28;20234;-84
2022/02/26 01:31:56;;;;;;;6.80;2.67;;;6.10;99.90;;;;;;5028475;28;20257;-86
2022/02/26 01:34:23;;;;;;;7.30;3.33;;;6.10;99.90;;;;;;5025437;28;20233;-83
2022/02/26 01:36:50;;;;;;;9.45;3.20;;;5.90;99.90;;;;;;5038430;28;20209;-84
2022/02/26 01:39:23;;;;;;;10.07;3.30;;;5.80;99.90;;;;;;5037767;28;20229;-84
2022/02/26 01:41:50;;;;;;;6.78;3.00;;;5.80;99.90;;;;;;5023713;28;20191;-83
2022/02/26 01:44:17;;;;;;;5.40;2.95;;;5.80;99.90;;;;;;5024180;28;20238;-84
2022/02/26 01:46:44;;;;;;;8.23;2.67;;;6.10;99.90;;;;;;5035490;28;20241;-84
2022/02/26 01:49:12;;;;;;;8.57;3.42;;;6.00;99.90;;;;;;5034881;28;20265;-84
2022/02/26 01:51:39;;;;;;;7.45;3.15;;;5.80;99.90;;;;;;5028976;28;20230;-84
2022/02/26 01:54:06;;;;;;;7.72;3.00;;;5.80;99.90;;;;;;5023392;28;20286;-84
2022/02/26 01:56:34;;;;;;;10.73;4.38;;;6.00;99.90;;;;;;5022807;28;20699;-84
2022/02/26 01:59:01;;;;;;;5.35;2.80;;;6.00;99.90;;;;;;5022907;28;20234;-84
2022/02/26 02:01:28;;;;;;;10.75;2.90;;;5.90;99.90;;;;;;5022129;28;20207;-85
2022/02/26 02:03:55;;;;;;;9.65;3.70;;;5.90;99.90;;;;;;5021093;28;20210;-84
2022/02/26 02:06:23;;;;;;;11.85;3.20;;;5.90;99.90;;;;;;5022922;28;20273;-84
2022/02/26 02:08:50;;;;;;;12.30;4.22;;;5.70;99.90;;;;;;5023648;28;20317;-84
2022/02/26 02:11:17;;;;;;;6.43;3.92;;;5.70;99.90;;;;;;5032620;28;20253;-84
2022/02/26 02:13:44;;;;;;;9.70;4.18;;;5.40;99.90;;;;;;5027284;28;20245;-83
2022/02/26 02:16:11;;;;;;;10.48;3.95;;;5.60;99.90;;;;;;5024020;28;20689;-84
2022/02/26 02:18:38;;;;;;;10.02;3.50;;;5.50;99.90;;;;;;5028684;28;20259;-86
2022/02/26 02:21:05;;;;;;;6.22;3.10;;;5.60;99.90;;;;;;5024491;28;20206;-84
2022/02/26 02:23:33;;;;;;;8.35;3.80;;;5.50;99.90;;;;;;5036919;28;20197;-84
2022/02/26 02:26:02;;;;;;;9.43;4.03;;;5.50;99.90;;;;;;5023808;28;20224;-84
2022/02/26 02:28:28;;;;;;;9.35;3.85;;;5.40;99.90;;;;;;5030983;28;20214;-84
2022/02/26 02:30:55;;;;;;;8.15;4.18;;;5.40;99.90;;;;;;5033771;28;20232;-83
2022/02/26 02:33:22;;;;;;;11.18;4.35;;;5.30;99.90;;;;;;5022821;28;20662;-86
2022/02/26 02:35:49;;;;;;;12.02;3.67;;;5.20;99.90;;;;;;5019765;28;20204;-84
2022/02/26 02:38:18;;;;;;;7.75;3.78;;;5.10;99.90;;;;;;5019159;28;20228;-84
2022/02/26 02:40:48;;;;;;;10.50;3.42;;;5.30;99.90;;;;;;5019517;28;20273;-84
2022/02/26 02:43:15;;;;;;;9.90;3.22;;;5.30;99.90;;;;;;5020019;28;20338;-84
2022/02/26 02:45:43;;;;;;;9.27;3.95;;;5.40;99.90;;;;;;5019052;28;20264;-84
2022/02/26 02:48:10;;;;;;;10.82;4.30;;;5.50;99.90;;;;;;5042573;23;20672;-86
2022/02/26 02:50:37;;;;;;;13.00;3.95;;;5.80;99.90;;;;;;5017544;28;20236;-87
2022/02/26 02:53:05;;;;;;;10.98;4.45;;;5.40;99.90;;;;;;5010071;28;20270;-88
2022/02/26 02:55:31;;;;;;;10.43;3.65;;;5.40;99.90;;;;;;5007518;28;20235;-87
2022/02/26 02:58:00;;;;;;;16.73;4.88;;;5.50;99.90;;;;;;5008147;28;20278;-88
2022/02/26 03:00:29;;;;;;;10.55;4.57;;;5.70;99.90;;;;;;4987805;28;20219;-86
2022/02/26 03:02:56;;;;;;;10.20;4.35;;;5.60;99.90;;;;;;4987982;28;20246;-87
2022/02/26 03:05:23;;;;;;;12.30;4.53;;;5.40;99.90;;;;;;4993914;28;20227;-87
2022/02/26 03:07:51;;;;;;;9.07;4.78;;;5.50;99.90;;;;;;4994606;28;20230;-88
2022/02/26 03:10:18;;;;;;;11.80;5.60;;;5.40;99.90;;;;;;4987958;28;20711;-86
2022/02/26 03:12:51;;;;;;;10.40;4.78;;;5.40;99.90;;;;;;4989361;28;20215;-88
2022/02/26 03:15:20;;;;;;;9.65;4.50;;;5.30;99.90;;;;;;4991275;28;20196;-89
2022/02/26 03:17:47;;;;;;;9.73;4.68;;;5.40;99.90;;;;;;4987450;28;20597;-88
2022/02/26 03:20:14;;;;;;;6.85;5.05;;;5.10;99.90;;;;;;4986856;28;20313;-88
2022/02/26 03:22:41;;;;;;;12.68;5.65;;;5.00;99.90;;;;;;4988132;28;20190;-87
2022/02/26 03:25:09;;;;;;;10.63;5.75;;;5.20;99.90;;;;;;4988165;28;20653;-87
2022/02/26 03:27:36;;;;;;;12.57;5.85;;;5.60;99.90;;;;;;4987989;28;20614;-86
2022/02/26 03:30:03;;;;;;;8.15;4.65;;;5.70;99.90;;;;;;4990669;28;20231;-88
2022/02/26 03:32:32;;;;;;;11.65;5.30;;;5.60;99.90;;;;;;4990893;28;20243;-89
2022/02/26 03:34:58;;;;;;;9.63;5.15;;;5.60;99.90;;;;;;4988002;28;20221;-89
2022/02/26 03:37:27;;;;;;;12.40;5.20;;;5.60;99.90;;;;;;4987153;28;20756;-88
2022/02/26 03:39:55;;;;;;;14.68;5.40;;;5.60;99.90;;;;;;4988493;28;20743;-87
2022/02/26 03:42:21;;;;;;;15.15;5.15;;;5.50;99.90;;;;;;4987974;28;20765;-88
2022/02/26 03:44:48;;;;;;;12.05;5.88;;;5.60;99.90;;;;;;4988357;28;20218;-86
2022/02/26 03:47:16;;;;;;;11.18;5.72;;;5.40;99.90;;;;;;4988769;28;20243;-88
2022/02/26 03:49:44;;;;;;;13.27;5.13;;;5.60;99.90;;;;;;4989287;28;20238;-85
2022/02/26 03:52:11;;;;;;;11.65;6.05;;;5.20;99.90;;;;;;4998841;28;20228;-85
2022/02/26 03:54:38;;;;;;;11.98;5.30;;;5.30;99.90;;;;;;4990619;28;20260;-85
2022/02/26 03:57:05;;;;;;;15.30;6.65;;;5.40;99.90;;;;;;4988039;28;20243;-87
2022/02/26 03:59:32;;;;;;;9.52;5.43;;;5.20;99.90;;;;;;4987333;28;20239;-87
2022/02/26 04:01:59;;;;;;;12.18;6.05;;;5.20;99.90;;;;;;4991429;28;20211;-88
2022/02/26 04:04:26;;;;;;;12.35;6.00;;;5.20;99.90;;;;;;4992203;28;20303;-87
2022/02/26 04:06:55;;;;;;;14.75;6.63;;;5.20;99.90;;;;;;4989523;28;20247;-86
2022/02/26 04:09:22;;;;;;;14.63;7.40;;;5.00;99.90;;;;;;4987402;28;20234;-86
2022/02/26 04:11:50;;;;;;;15.50;7.60;;;4.90;99.90;;;;;;4996232;28;20245;-87
2022/02/26 04:14:16;;;;;;;10.32;6.55;;;4.80;99.90;;;;;;4989940;28;20211;-87
2022/02/26 04:16:43;;;;;;;14.57;7.03;;;4.70;99.90;;;;;;4988175;28;20302;-88
2022/02/26 04:19:10;;;;;;;13.43;5.75;;;4.90;99.90;;;;;;4988205;28;20773;-87
2022/02/26 04:21:37;;;;;;;21.60;11.65;;;4.80;99.90;;;;;;4987394;28;20234;-88
2022/02/26 04:24:06;;;;;;;11.55;6.05;;;5.00;99.90;;;;;;4988759;28;20226;-86
2022/02/26 04:26:33;;;;;;;13.27;6.20;;;4.80;99.90;;;;;;4988744;28;20293;-88
2022/02/26 04:29:00;;;;;;;13.15;6.40;;;4.90;99.90;;;;;;4986945;28;20293;-87
2022/02/26 04:31:27;;;;;;;16.58;6.75;;;4.90;99.90;;;;;;4986817;28;20252;-88
2022/02/26 04:33:54;;;;;;;9.52;5.95;;;4.60;99.90;;;;;;4987060;28;20217;-88
2022/02/26 04:36:21;;;;;;;10.00;5.97;;;4.90;99.90;;;;;;4986969;28;20277;-88
2022/02/26 04:38:48;;;;;;;9.50;5.22;;;4.90;99.90;;;;;;4986327;28;20770;-88
2022/02/26 04:41:16;;;;;;;13.35;6.20;;;4.40;99.90;;;;;;4988835;28;20233;-88
2022/02/26 04:43:44;;;;;;;13.18;6.45;;;4.90;99.90;;;;;;4990566;28;20230;-89
2022/02/26 04:46:11;;;;;;;8.98;5.20;;;5.00;99.90;;;;;;5000434;28;20255;-87
2022/02/26 04:48:39;;;;;;;10.35;5.57;;;5.00;99.90;;;;;;5001280;28;20294;-88
2022/02/26 04:51:08;;;;;;;18.42;6.90;;;4.80;99.90;;;;;;5000712;28;20225;-87
2022/02/26 04:53:36;;;;;;;12.13;5.50;;;5.10;99.90;;;;;;5001469;28;20190;-84
2022/02/26 04:56:03;;;;;;;14.05;6.05;;;4.90;99.90;;;;;;5000961;28;20198;-84
2022/02/26 04:58:32;;;;;;;12.30;6.40;;;5.00;99.90;;;;;;4997477;28;20258;-88
2022/02/26 05:00:59;;;;;;;15.70;6.88;;;4.80;99.90;;;;;;4991765;28;20221;-88
2022/02/26 05:03:26;;;;;;;14.45;6.85;;;5.00;99.90;;;;;;4992075;28;20292;-88
2022/02/26 05:05:54;;;;;;;18.10;7.20;;;5.00;99.90;;;;;;4990748;28;20233;-89
2022/02/26 05:08:20;;;;;;;15.68;5.47;;;5.00;99.90;;;;;;4990012;28;20232;-87
2022/02/26 05:10:47;;;;;;;14.07;5.72;;;5.00;99.90;;;;;;4989186;28;20209;-88
2022/02/26 05:13:14;;;;;;;14.35;6.18;;;4.90;99.90;;;;;;4989333;28;20219;-88
2022/02/26 05:15:42;;;;;;;14.20;5.30;;;5.00;99.90;;;;;;4992795;28;20267;-86
2022/02/26 05:18:09;;;;;;;14.30;6.03;;;5.00;99.90;;;;;;4989508;28;20219;-87
2022/02/26 05:20:36;;;;;;;14.45;7.32;;;5.00;99.90;;;;;;4989782;28;20209;-88
2022/02/26 05:23:03;;;;;;;15.32;7.00;;;5.10;99.90;;;;;;4992422;28;20300;-88
2022/02/26 05:25:30;;;;;;;16.13;6.60;;;4.90;99.90;;;;;;4997029;28;20243;-88
2022/02/26 05:27:57;;;;;;;14.82;6.25;;;4.90;99.90;;;;;;4993167;28;20298;-86
2022/02/26 05:30:24;;;;;;;15.23;6.75;;;5.00;99.90;;;;;;4989733;28;20297;-85
2022/02/26 05:32:52;;;;;;;12.05;6.28;;;5.10;99.90;;;;;;4993153;28;20255;-85
2022/02/26 05:35:19;;;;;;;11.43;6.03;;;4.90;99.90;;;;;;4999116;28;20206;-87
2022/02/26 05:37:46;;;;;;;10.32;5.65;;;4.90;99.90;;;;;;4990255;28;20214;-88
2022/02/26 05:40:14;;;;;;;10.45;5.47;;;5.00;99.90;;;;;;4989733;28;20285;-86
2022/02/26 05:42:41;;;;;;;13.20;5.88;;;5.00;99.90;;;;;;4999585;28;20211;-87
2022/02/26 05:45:09;;;;;;;14.75;6.45;;;5.00;99.90;;;;;;4991859;28;20207;-89
2022/02/26 05:47:36;;;;;;;10.32;5.85;;;4.90;99.90;;;;;;4988976;28;20208;-89
2022/02/26 05:50:05;;;;;;;14.10;7.10;;;4.90;99.90;;;;;;4988850;28;20274;-89
2022/02/26 05:52:32;;;;;;;21.25;7.22;;;5.00;99.90;;;;;;4988340;28;20237;-88
2022/02/26 05:54:59;;;;;;;16.88;6.90;;;5.00;99.90;;;;;;4989036;28;20213;-87
2022/02/26 05:57:26;;;;;;;17.08;7.47;;;4.80;99.90;;;;;;4988498;28;20221;-88
2022/02/26 05:59:53;;;;;;;16.60;7.10;;;5.10;99.90;;;;;;4988460;28;20262;-88
2022/02/26 06:02:20;;;;;;;13.65;5.82;;;5.00;99.90;;;;;;4994081;28;20274;-86
2022/02/26 06:04:47;;;;;;;14.27;7.22;;;5.10;99.90;;;;;;4989705;28;20233;-86
2022/02/26 06:07:15;;;;;;;10.63;7.60;;;5.20;99.90;;;;;;4989502;28;20238;-88
2022/02/26 06:09:42;;;;;;;17.27;6.97;;;4.90;99.90;;;;;;4991463;28;20222;-87
2022/02/26 06:12:09;;;;;;;13.43;6.60;;;4.90;99.90;;;;;;4991616;28;20231;-87
2022/02/26 06:14:36;;;;;;;12.15;6.20;;;5.00;99.90;;;;;;4984988;28;20667;-88
2022/02/26 06:17:03;;;;;;;16.40;8.10;;;5.10;99.90;;;;;;4988443;28;20211;-87
2022/02/26 06:19:30;;;;;;;15.18;8.20;;;4.90;99.90;;;;;;4988177;28;20233;-88
2022/02/26 06:21:57;;;;;;;16.02;7.47;;;4.90;99.90;;;;;;4987809;28;20344;-87
2022/02/26 06:24:25;;;;;;;14.32;7.72;;;5.00;99.90;;;;;;4989013;28;20233;-87
2022/02/26 06:26:52;;;;;;;17.85;7.05;;;5.10;99.90;;;;;;4990526;28;20216;-88
2022/02/26 06:29:19;;;;;;;14.20;6.65;;;5.20;99.90;;;;;;4993547;28;20253;-88
2022/02/26 06:31:46;;;;;;;17.42;6.90;;;5.30;99.90;;;;;;4992022;28;20227;-88
2022/02/26 06:34:13;;;;;;;15.30;8.25;;;5.20;99.90;;;;;;4990153;28;20279;-88
2022/02/26 06:36:40;;;;;;;14.00;6.80;;;5.10;99.90;;;;;;4988529;28;20212;-87
2022/02/26 06:39:09;;;;;;;15.32;7.10;;;5.30;99.90;;;;;;4988907;28;20346;-88
2022/02/26 06:41:37;;;;;;;17.20;7.53;;;5.40;99.90;;;;;;4988244;28;20557;-86
2022/02/26 06:44:04;;;;;;;14.75;8.57;;;5.10;99.90;;;;;;4988066;28;20247;-87
2022/02/26 06:46:34;;;;;;;14.30;7.38;;;5.00;99.90;;;;;;4988023;28;20695;-88
2022/02/26 06:49:02;;;;;;;13.85;7.03;;;5.10;99.90;;;;;;4988609;28;20246;-88
2022/02/26 06:51:30;;;;;;;15.13;6.50;;;5.00;99.90;;;;;;4990285;28;20298;-86
2022/02/26 06:53:57;;;;;;;11.35;6.70;;;5.20;99.90;;;;;;4990154;28;20281;-86
2022/02/26 06:56:24;;;;;;;17.30;8.05;;;5.40;99.90;;;;;;4996034;28;20672;-88
2022/02/26 06:58:54;;;;;;;16.70;7.13;;;5.10;99.90;;;;;;4991382;28;20780;-88
2022/02/26 07:01:21;;;;;;;16.00;6.90;;;5.30;99.90;;;;;;4987940;28;20184;-88
2022/02/26 07:03:48;;;;;;;13.95;6.50;;;5.30;99.90;;;;;;4987390;28;20287;-88
2022/02/26 07:06:15;;;;;;;16.02;7.20;;;5.10;99.90;;;;;;4988053;28;20305;-86
2022/02/26 07:08:42;;;;;;;13.18;5.80;;;5.30;99.90;;;;;;4990698;28;20358;-87
2022/02/26 07:11:09;;;;;;;12.88;6.38;;;5.20;99.90;;;;;;4989975;28;20248;-87
2022/02/26 07:13:36;;;;;;;13.00;7.15;;;5.10;99.90;;;;;;4987666;28;20327;-86
2022/02/26 07:16:05;;;;;;;20.10;6.60;;;5.10;99.90;;;;;;4989562;28;20372;-88
2022/02/26 07:18:32;;;;;;;20.30;7.18;;;5.00;99.90;;;;;;4988558;28;20266;-87
2022/02/26 07:20:59;;;;;;;15.85;8.07;;;4.90;99.90;;;;;;4988542;28;20300;-87
2022/02/26 07:23:26;;;;;;;13.95;6.53;;;5.00;99.90;;;;;;4989180;28;20238;-88
2022/02/26 07:25:52;;;;;;;15.38;6.70;;;5.10;99.90;;;;;;4991107;28;20211;-87
2022/02/26 07:28:19;;;;;;;15.15;7.53;;;5.00;99.90;;;;;;4993435;28;20243;-87
2022/02/26 07:30:48;;;;;;;13.02;6.95;;;5.20;99.90;;;;;;4997956;28;20279;-87
2022/02/26 07:33:16;;;;;;;16.27;7.68;;;5.40;99.90;;;;;;4996787;28;20211;-88
2022/02/26 07:35:43;;;;;;;17.75;6.80;;;5.50;99.90;;;;;;4996500;28;20235;-87
2022/02/26 07:38:10;;;;;;;14.52;6.72;;;5.40;99.90;;;;;;4997034;28;20263;-84
2022/02/26 07:40:41;;;;;;;17.20;7.45;;;5.50;99.90;;;;;;4992922;28;20214;-88
2022/02/26 07:43:08;;;;;;;10.50;6.53;;;5.40;99.90;;;;;;4993201;28;20192;-86
2022/02/26 07:45:35;;;;;;;13.32;5.88;;;5.40;99.90;;;;;;4991670;28;20273;-87
2022/02/26 07:48:02;;;;;;;12.18;6.72;;;5.20;99.90;;;;;;4990118;28;20297;-87
2022/02/26 07:50:30;;;;;;;13.68;6.40;;;5.30;99.90;;;;;;4990481;28;20207;-88
2022/02/26 07:52:57;;;;;;;14.73;9.98;;;5.30;99.90;;;;;;4990029;28;20246;-88
2022/02/26 07:55:24;;;;;;;17.08;8.18;;;5.20;99.90;;;;;;4995293;28;20226;-87
2022/02/26 07:57:51;;;;;;;17.50;7.38;;;5.30;99.90;;;;;;4991935;28;20248;-88
2022/02/26 08:00:18;;;;;;;16.65;7.88;;;5.60;99.90;;;;;;4987735;28;20237;-88
2022/02/26 08:02:45;;;;;;;10.52;6.97;;;5.60;99.90;;;;;;4988205;28;20242;-88
2022/02/26 08:05:12;;;;;;;14.93;7.28;;;5.70;99.90;;;;;;4991159;28;20253;-87
2022/02/26 08:07:40;;;;;;;12.35;7.00;;;5.80;99.90;;;;;;4990316;28;20263;-86
2022/02/26 08:10:08;;;;;;;19.52;7.60;;;5.60;99.90;;;;;;4989588;28;20260;-87
2022/02/26 08:12:34;;;;;;;11.77;6.53;;;5.30;99.90;;;;;;4988202;28;20253;-88
2022/02/26 08:15:01;;;;;;;15.63;7.70;;;5.30;99.90;;;;;;4990897;28;20216;-88
2022/02/26 08:17:28;;;;;;;13.60;7.28;;;5.20;99.90;;;;;;4996276;28;20222;-87
2022/02/26 08:19:56;;;;;;;13.18;7.63;;;5.30;99.90;;;;;;4997648;28;20234;-88
2022/02/26 08:22:23;;;;;;;15.50;7.55;;;5.60;99.90;;;;;;4993149;28;20578;-88
2022/02/26 08:24:51;;;;;;;23.05;7.88;;;5.40;99.90;;;;;;4992709;28;20253;-88
2022/02/26 08:27:18;;;;;;;11.13;6.50;;;5.40;99.90;;;;;;4992003;28;20243;-88
2022/02/26 08:29:45;;;;;;;17.80;7.65;;;5.50;99.90;;;;;;4992140;28;20239;-88
2022/02/26 08:32:12;;;;;;;18.10;8.88;;;5.50;99.90;;;;;;4995834;28;20223;-87
2022/02/26 08:34:39;;;;;;;15.88;6.53;;;4.90;99.90;;;;;;4995168;28;20246;-87
2022/02/26 08:37:06;;;;;;;16.35;8.50;;;5.80;99.90;;;;;;5001159;28;20190;-87
2022/02/26 08:39:33;;;;;;;17.65;7.78;;;5.70;99.90;;;;;;5000403;28;20230;-84
2022/02/26 08:42:02;;;;;;;15.35;7.10;;;5.90;99.90;;;;;;4993924;28;20216;-86
2022/02/26 08:44:28;;;;;;;15.73;7.75;;;6.00;99.90;;;;;;4992964;28;20232;-88
2022/02/26 08:46:55;;;;;;;15.45;6.95;;;5.90;99.90;;;;;;4992184;28;20235;-86
2022/02/26 08:49:22;;;;;;;14.27;7.70;;;5.90;99.90;;;;;;5161663;23;20238;-84
2022/02/26 08:51:49;;;;;;;21.27;8.70;;;5.80;99.90;;;;;;5024498;28;20312;-84
2022/02/26 08:54:16;;;;;;;16.33;9.40;;;5.70;99.90;;;;;;5024676;28;20253;-84
2022/02/26 08:56:43;;;;;;;15.50;7.30;;;5.80;99.90;;;;;;5025246;28;20215;-84
2022/02/26 08:59:11;;;;;;;19.80;6.97;;;6.00;99.90;;;;;;5027309;28;20315;-84
2022/02/26 09:01:40;;;;;;;18.10;7.43;;;5.90;99.90;;;;;;5027406;28;20234;-85
2022/02/26 09:04:10;;;;;;;14.85;8.93;;;5.90;99.90;;;;;;5025837;28;20272;-85
2022/02/26 09:06:39;;;;;;;13.32;6.18;;;5.90;99.90;;;;;;5023875;28;20194;-85
2022/02/26 09:09:08;;;;;;;12.57;5.88;;;5.90;99.90;;;;;;5024323;28;20261;-85
2022/02/26 09:11:36;;;;;;;11.45;7.05;;;6.00;99.90;;;;;;5024100;28;20252;-85
2022/02/26 09:14:03;;;;;;;14.10;6.43;;;5.90;99.90;;;;;;5024624;28;20224;-85
2022/02/26 09:16:31;;;;;;;14.82;7.60;;;5.80;99.90;;;;;;5024540;28;20205;-84
2022/02/26 09:18:58;;;;;;;13.07;6.80;;;6.00;99.90;;;;;;5025608;28;20300;-84
2022/02/26 09:21:25;;;;;;;13.82;7.35;;;5.80;99.90;;;;;;5031362;28;20261;-85
2022/02/26 09:23:53;;;;;;;12.57;7.15;;;6.10;99.90;;;;;;5036080;28;20221;-84
2022/02/26 09:26:20;;;;;;;11.55;4.28;;;6.20;99.90;;;;;;5024264;28;20216;-85
2022/02/26 09:28:48;;;;;;;10.10;5.53;;;5.90;99.90;;;;;;5024116;28;20631;-84
2022/02/26 09:31:15;;;;;;;9.73;5.47;;;5.90;99.90;;;;;;5023310;28;20248;-85
2022/02/26 09:33:46;;;;;;;13.40;5.60;;;5.80;99.90;;;;;;5024555;28;20363;-86
2022/02/26 09:36:13;;;;;;;14.43;5.95;;;6.00;99.90;;;;;;5022332;28;20205;-84
2022/02/26 09:38:41;;;;;;;12.57;7.85;;;5.70;99.90;;;;;;5027394;28;20235;-84
2022/02/26 09:41:10;;;;;;;10.77;5.60;;;6.10;99.90;;;;;;5029727;28;20209;-86
2022/02/26 09:43:38;;;;;;;10.02;4.53;;;5.80;99.90;;;;;;5024388;28;20204;-85
2022/02/26 09:46:06;;;;;;;17.92;5.03;;;5.80;99.90;;;;;;5023679;28;20246;-85
2022/02/26 09:48:34;;;;;;;14.65;4.47;;;5.80;99.90;;;;;;5024368;28;20211;-85
2022/02/26 09:51:04;;;;;;;9.43;4.63;;;5.80;99.90;;;;;;5027406;28;20194;-85
2022/02/26 09:53:31;;;;;;;10.20;5.20;;;5.90;99.90;;;;;;5023969;28;20242;-85
2022/02/26 09:55:59;;;;;;;10.82;5.22;;;5.50;99.90;;;;;;5023865;28;20307;-85
2022/02/26 09:58:26;;;;;;;16.90;6.60;;;5.80;99.90;;;;;;5022486;28;20267;-86
2022/02/26 10:00:53;;;;;;;9.07;4.40;;;6.20;99.90;;;;;;5023806;28;20702;-84
2022/02/26 10:03:31;;;;;;;15.32;5.78;;;6.20;99.90;;;;;;5025730;28;20207;-87
2022/02/26 10:06:08;;;;;;;11.57;4.47;;;6.50;99.90;;;;;;5024046;28;20238;-87
2022/02/26 10:08:39;;;;;;;9.20;2.83;;;6.70;99.90;;;;;;5026161;28;20187;-87
2022/02/26 10:11:07;;;;;;;14.98;2.40;;;6.70;97.70;;;;;;5024036;28;20270;-88
2022/02/26 10:13:44;;;;;;;7.80;1.92;;;6.70;95.20;;;;;;5027986;28;20253;-87
2022/02/26 10:16:12;;;;;;;6.47;1.98;;;6.70;93.60;;;;;;5037746;28;20182;-88
2022/02/26 10:18:51;;;;;;;5.93;1.95;;;6.90;93.00;;;;;;5034820;28;20269;-87
2022/02/26 10:21:30;;;;;;;8.38;3.25;;;7.30;93.70;;;;;;5029734;28;20624;-87
2022/02/26 10:23:57;;;;;;;13.75;1.95;;;6.90;94.00;;;;;;5028314;28;20190;-86
2022/02/26 10:26:26;;;;;;;6.38;2.25;;;7.00;94.10;;;;;;5037830;28;20227;-88
2022/02/26 10:29:08;;;;;;;6.57;1.60;;;7.10;93.30;;;;;;5030578;28;20258;-86
2022/02/26 10:31:46;;;;;;;10.20;2.45;;;7.20;92.50;;;;;;5026430;28;20190;-88
2022/02/26 10:34:28;;;;;;;7.30;2.30;;;7.10;91.90;;;;;;5025138;28;20234;-88
2022/02/26 10:37:09;;;;;;;9.90;2.40;;;7.00;91.80;;;;;;5025607;28;20243;-88
2022/02/26 10:39:37;;;;;;;6.85;2.40;;;7.00;91.60;;;;;;5023294;28;20233;-87
2022/02/26 10:42:06;;;;;;;8.20;3.30;;;7.10;91.20;;;;;;5024854;28;20222;-87
2022/02/26 10:44:33;;;;;;;6.40;2.30;;;7.00;91.60;;;;;;5024523;28;20257;-87
2022/02/26 10:47:11;;;;;;;8.43;3.33;;;7.20;92.40;;;;;;5023923;28;20559;-87
2022/02/26 10:49:43;;;;;;;7.85;2.83;;;7.00;93.20;;;;;;5027793;28;20233;-88
2022/02/26 10:52:13;;;;;;;8.50;2.70;;;6.90;92.80;;;;;;5026398;28;20268;-88
2022/02/26 10:54:41;;;;;;;10.00;3.63;;;6.80;92.60;;;;;;5024404;28;20245;-89
2022/02/26 10:57:10;;;;;;;6.18;2.80;;;7.00;93.10;;;;;;5024462;28;20305;-87
2022/02/26 10:59:41;;;;;;;10.45;2.58;;;6.60;92.90;;;;;;5024682;28;20276;-88
2022/02/26 11:02:10;;;;;;;9.27;4.00;;;6.70;93.50;;;;;;5026872;28;20293;-87
2022/02/26 11:04:38;;;;;;;4.90;2.00;;;7.00;93.80;;;;;;5028741;28;20271;-86
2022/02/26 11:07:07;;;;;;;12.02;3.42;;;6.90;92.50;;;;;;5031380;28;20235;-89
2022/02/26 11:09:39;;;;;;;6.88;3.35;;;6.90;92.80;;;;;;5030842;28;20241;-87
2022/02/26 11:12:07;;;;;;;9.75;3.85;;;7.00;94.00;;;;;;5031840;28;20198;-88
2022/02/26 11:14:37;;;;;;;7.82;3.22;;;6.80;94.20;;;;;;5032499;28;20740;-88
2022/02/26 11:17:07;;;;;;;8.95;3.08;;;6.70;94.50;;;;;;5029939;28;20266;-87
2022/02/26 11:19:38;;;;;;;14.00;3.83;;;6.50;95.50;;;;;;5037269;28;20232;-87
2022/02/26 11:22:05;;;;;;;8.25;3.40;;;6.80;95.70;;;;;;5024344;28;20219;-87
2022/02/26 11:24:34;;;;;;;6.30;2.28;;;6.50;96.20;;;;;;5021574;28;20645;-87
2022/02/26 11:27:01;;;;;;;7.75;2.90;;;6.60;95.90;;;;;;5022146;28;20210;-87
2022/02/26 11:29:28;;;;;;;9.30;3.28;;;6.50;96.10;;;;;;5022451;28;20234;-87
2022/02/26 11:32:04;;;;;;;14.30;4.75;;;6.60;96.10;;;;;;5023534;28;20214;-87
2022/02/26 11:34:33;;;;;;;8.15;5.25;;;6.50;96.40;;;;;;5025237;28;20224;-87
2022/02/26 11:37:05;;;;;;;10.75;3.65;;;6.70;96.50;;;;;;5022351;28;20242;-87
2022/02/26 11:39:35;;;;;;;11.30;3.20;;;6.80;96.10;;;;;;5021263;28;20321;-89
2022/02/26 11:42:30;;;;;;;9.30;3.00;;;6.60;95.60;;;;;;5022357;28;20233;-86
2022/02/26 11:45:01;;;;;;;8.90;3.50;;;6.50;95.50;;;;;;5024085;28;20218;-87
2022/02/26 11:47:38;;;;;;;8.73;2.97;;;6.40;96.10;;;;;;5022066;28;20632;-87
2022/02/26 11:50:09;;;;;;;7.00;2.80;;;6.50;95.60;;;;;;5023388;28;20269;-87
2022/02/26 11:52:49;;;;;;;7.90;3.05;;;6.50;94.50;;;;;;5023487;28;20277;-87
2022/02/26 11:55:30;;;;;;;5.97;2.92;;;6.90;93.50;;;;;;5022860;28;20194;-87
2022/02/26 11:58:00;;;;;;;8.45;2.72;;;7.00;93.00;;;;;;5022798;28;20198;-87
2022/02/26 12:00:31;;;;;;;9.95;3.35;;;6.90;92.20;;;;;;5023397;28;20239;-87
2022/02/26 12:03:25;;;;;;;8.95;3.65;;;7.30;92.30;;;;;;5023269;28;20202;-87
2022/02/26 12:05:55;;;;;;;15.82;5.40;;;6.90;92.80;;;;;;5022766;28;20199;-88
2022/02/26 12:08:39;;;;;;;11.70;3.28;;;7.00;93.10;;;;;;5023402;28;20198;-89
2022/02/26 12:11:10;;;;;;;8.50;3.05;;;7.00;92.90;;;;;;5023318;28;20202;-86
2022/02/26 12:13:39;;;;;;;8.45;2.85;;;6.70;93.10;;;;;;5023423;28;20283;-85
2022/02/26 12:16:17;;;;;;;8.32;2.95;;;7.00;93.20;;;;;;5025109;28;20207;-85
2022/02/26 12:18:48;;;;;;;8.98;3.28;;;7.00;92.90;;;;;;5023383;28;20915;-86
2022/02/26 12:21:19;;;;;;;13.25;3.38;;;7.20;93.00;;;;;;5025760;28;20270;-83
2022/02/26 12:24:03;;;;;;;9.48;3.20;;;7.10;93.00;;;;;;5024403;28;20185;-84
2022/02/26 12:27:01;;;;;;;12.55;2.22;;;7.00;92.80;;;;;;5023143;28;20240;-84
2022/02/26 12:29:53;;;;;;;6.20;2.40;;;7.20;92.10;;;;;;5021472;28;20368;-85
2022/02/26 12:32:23;;;;;;;9.15;2.50;;;7.20;91.90;;;;;;5026839;28;20267;-85
2022/02/26 12:35:03;;;;;;;7.38;2.67;;;7.30;91.90;;;;;;5024010;28;20258;-85
2022/02/26 12:37:31;;;;;;;6.18;2.65;;;7.30;92.10;;;;;;5023487;28;20190;-86
2022/02/26 12:40:00;;;;;;;8.90;2.65;;;7.00;91.20;;;;;;5031455;28;20230;-86
2022/02/26 12:42:31;;;;;;;9.90;2.58;;;7.20;91.40;;;;;;5031447;28;20217;-85
2022/02/26 12:45:00;;;;;;;6.85;3.05;;;7.20;91.70;;;;;;5024575;28;20647;-86
2022/02/26 12:47:28;;;;;;;8.07;2.78;;;7.00;91.30;;;;;;5022020;28;20288;-84
2022/02/26 12:49:56;;;;;;;7.18;2.60;;;7.30;91.70;;;;;;5021750;28;20258;-85
2022/02/26 12:52:23;;;;;;;8.98;2.30;;;7.40;91.90;;;;;;5020868;28;20230;-84
2022/02/26 12:54:53;;;;;;;10.10;2.28;;;7.70;91.90;;;;;;5022664;28;20223;-85
2022/02/26 12:57:20;;;;;;;7.33;2.63;;;7.40;91.30;;;;;;5026652;28;20257;-85
2022/02/26 12:59:49;;;;;;;5.28;1.88;;;7.70;91.10;;;;;;5023779;28;20481;-85